Time;durP1;ratioP1;P1;durP2;ratioP2;P2;SDS_P1;SDS_P2;PMS_P1;PMS_P2;Temp;Humidity;BMP_temperature;BMP_pressure;BME280_temperature;BME280_humidity;BME280_pressure;Samples;Min_cycle;Max_cycle;Signal;HPM_P1;HPM_P2
2021/01/09 00:00:08;;;;;;;26.27;16.47;;;2.30;99.90;;;;;;5050848;28;20240;-68
2021/01/09 00:02:33;;;;;;;25.57;15.93;;;2.30;99.90;;;;;;5050707;28;20510;-68
2021/01/09 00:04:59;;;;;;;25.67;16.37;;;2.40;99.90;;;;;;5050537;28;20421;-68
2021/01/09 00:07:25;;;;;;;23.40;15.23;;;2.30;99.90;;;;;;5050624;28;20276;-64
2021/01/09 00:09:50;;;;;;;23.13;15.20;;;2.30;99.90;;;;;;5050750;28;20266;-67
2021/01/09 00:12:16;;;;;;;20.83;15.40;;;2.30;99.90;;;;;;5032796;28;20183;-66
2021/01/09 00:14:41;;;;;;;25.07;16.03;;;2.40;99.90;;;;;;5050561;28;20255;-65
2021/01/09 00:17:08;;;;;;;22.60;14.47;;;2.30;99.90;;;;;;5050459;28;20197;-67
2021/01/09 00:19:35;;;;;;;27.13;16.70;;;2.40;99.90;;;;;;5048607;28;20215;-67
2021/01/09 00:22:01;;;;;;;26.93;16.67;;;2.40;99.90;;;;;;5032485;28;20793;-65
2021/01/09 00:24:26;;;;;;;22.83;15.63;;;2.40;99.90;;;;;;5050793;28;20418;-67
2021/01/09 00:26:52;;;;;;;24.03;15.63;;;2.40;99.90;;;;;;5050572;28;20254;-66
2021/01/09 00:29:18;;;;;;;26.23;16.93;;;2.40;99.90;;;;;;5050300;28;20180;-68
2021/01/09 00:31:44;;;;;;;26.00;16.60;;;2.50;99.90;;;;;;5050472;28;20686;-67
2021/01/09 00:34:09;;;;;;;23.27;15.50;;;2.50;99.90;;;;;;5050359;28;20457;-65
2021/01/09 00:36:35;;;;;;;19.40;14.40;;;2.50;99.90;;;;;;5050405;28;20202;-68
2021/01/09 00:39:03;;;;;;;23.40;15.73;;;2.60;99.90;;;;;;5050604;28;20626;-65
2021/01/09 00:41:30;;;;;;;24.37;15.77;;;2.60;99.90;;;;;;5050283;28;20516;-68
2021/01/09 00:43:56;;;;;;;24.13;15.60;;;2.70;99.90;;;;;;5049294;28;20416;-65
2021/01/09 00:46:22;;;;;;;26.33;15.33;;;2.80;99.90;;;;;;5050097;28;20413;-66
2021/01/09 00:48:48;;;;;;;22.50;14.50;;;2.70;99.90;;;;;;5050402;28;20413;-64
2021/01/09 00:51:14;;;;;;;23.60;14.63;;;2.80;99.90;;;;;;5050228;28;20270;-65
2021/01/09 00:53:40;;;;;;;20.13;13.87;;;2.80;99.90;;;;;;5050044;28;20194;-67
2021/01/09 00:56:06;;;;;;;22.60;15.70;;;2.90;99.90;;;;;;5050552;28;20418;-67
2021/01/09 00:58:33;;;;;;;24.10;15.33;;;2.70;99.90;;;;;;5035210;28;20554;-65
2021/01/09 01:00:59;;;;;;;23.80;14.50;;;2.70;99.90;;;;;;5054346;28;20441;-65
2021/01/09 01:03:24;;;;;;;21.27;14.67;;;2.80;99.90;;;;;;5053860;28;20425;-66
2021/01/09 01:05:50;;;;;;;21.87;14.63;;;2.70;99.90;;;;;;5053498;28;20225;-64
2021/01/09 01:08:15;;;;;;;23.20;14.90;;;2.70;99.90;;;;;;5053814;28;20186;-66
2021/01/09 01:10:41;;;;;;;25.00;15.07;;;2.60;99.90;;;;;;5053478;28;20187;-64
2021/01/09 01:13:07;;;;;;;25.47;16.40;;;2.50;99.90;;;;;;5053556;28;20668;-65
2021/01/09 01:15:32;;;;;;;26.40;15.87;;;2.50;99.90;;;;;;5054086;28;20197;-66
2021/01/09 01:17:58;;;;;;;23.63;15.30;;;2.50;99.90;;;;;;5053330;28;20550;-66
2021/01/09 01:20:23;;;;;;;24.50;15.43;;;2.40;99.90;;;;;;5053394;28;20685;-64
2021/01/09 01:22:49;;;;;;;22.93;15.40;;;2.60;99.90;;;;;;5053356;28;20514;-65
2021/01/09 01:25:16;;;;;;;22.90;15.30;;;2.60;99.90;;;;;;5053514;28;20233;-67
2021/01/09 01:27:41;;;;;;;22.90;15.27;;;2.60;99.90;;;;;;5053555;28;20202;-64
2021/01/09 01:30:08;;;;;;;23.13;16.03;;;2.60;99.90;;;;;;5053075;28;20813;-64
2021/01/09 01:32:33;;;;;;;22.60;15.53;;;2.50;99.90;;;;;;5053355;28;20179;-67
2021/01/09 01:34:59;;;;;;;24.03;16.03;;;2.60;99.90;;;;;;5053056;28;20996;-65
2021/01/09 01:37:25;;;;;;;24.80;16.03;;;2.60;99.90;;;;;;5053108;28;20199;-64
2021/01/09 01:39:50;;;;;;;23.63;15.07;;;2.60;99.90;;;;;;5053324;28;20179;-66
2021/01/09 01:42:16;;;;;;;21.37;14.53;;;2.80;99.90;;;;;;5052944;28;20274;-66
2021/01/09 01:44:42;;;;;;;24.97;15.20;;;2.80;99.90;;;;;;5053170;28;20171;-64
2021/01/09 01:47:19;;;;;;;24.63;15.10;;;2.80;99.90;;;;;;5052960;28;20233;-68
2021/01/09 01:49:46;;;;;;;24.20;15.93;;;2.80;99.90;;;;;;5051505;28;20171;-64
2021/01/09 01:52:18;;;;;;;24.30;15.03;;;2.80;99.90;;;;;;5052838;28;20482;-64
2021/01/09 01:54:44;;;;;;;21.40;14.93;;;2.70;99.90;;;;;;5052954;28;20422;-65
2021/01/09 01:57:12;;;;;;;24.60;15.50;;;2.70;99.90;;;;;;5052558;28;20809;-66
2021/01/09 01:59:41;;;;;;;21.63;14.87;;;2.80;99.90;;;;;;5053336;28;20439;-66
2021/01/09 02:02:09;;;;;;;25.93;14.73;;;2.70;99.90;;;;;;5052679;28;20414;-65
2021/01/09 02:04:35;;;;;;;21.70;14.77;;;2.70;99.90;;;;;;5052456;28;20479;-67
2021/01/09 02:07:07;;;;;;;25.17;16.87;;;2.60;99.90;;;;;;5052700;28;20505;-65
2021/01/09 02:09:39;;;;;;;23.70;15.63;;;2.50;99.90;;;;;;5052573;28;20633;-65
2021/01/09 02:12:14;;;;;;;23.80;15.60;;;2.50;99.90;;;;;;5052456;28;20772;-64
2021/01/09 02:14:42;;;;;;;24.97;16.10;;;2.50;99.90;;;;;;5051754;28;20428;-67
2021/01/09 02:17:09;;;;;;;24.93;15.60;;;2.50;99.90;;;;;;5052458;28;20457;-65
2021/01/09 02:19:56;;;;;;;24.53;15.40;;;2.50;99.90;;;;;;5031521;28;20548;-66
2021/01/09 02:22:22;;;;;;;25.30;15.80;;;2.40;99.90;;;;;;5032432;28;20726;-66
2021/01/09 02:24:48;;;;;;;22.90;14.97;;;2.40;99.90;;;;;;5031937;28;20411;-68
2021/01/09 02:27:14;;;;;;;23.73;15.50;;;2.40;99.90;;;;;;5032318;28;20421;-67
2021/01/09 02:29:47;;;;;;;24.73;15.70;;;2.50;99.90;;;;;;5031806;28;20172;-65
2021/01/09 02:32:17;;;;;;;24.93;15.83;;;2.50;99.90;;;;;;5032271;28;20438;-67
2021/01/09 02:34:49;;;;;;;24.40;16.07;;;2.40;99.90;;;;;;5031924;28;20461;-66
2021/01/09 02:37:15;;;;;;;23.10;14.67;;;2.40;99.90;;;;;;5032030;28;20778;-66
2021/01/09 02:39:41;;;;;;;20.83;14.37;;;2.40;99.90;;;;;;5031928;28;20438;-67
2021/01/09 02:42:07;;;;;;;22.53;14.40;;;2.30;99.90;;;;;;5031933;28;20215;-65
2021/01/09 02:44:33;;;;;;;21.60;14.90;;;2.20;99.90;;;;;;5032164;28;20214;-67
2021/01/09 02:46:59;;;;;;;23.80;15.57;;;2.20;99.90;;;;;;5031721;28;20422;-67
2021/01/09 02:49:25;;;;;;;23.80;14.50;;;2.20;99.90;;;;;;5031986;28;20411;-65
2021/01/09 02:51:51;;;;;;;23.30;14.83;;;2.20;99.90;;;;;;5030169;28;20171;-65
2021/01/09 02:54:16;;;;;;;23.80;15.13;;;2.20;99.90;;;;;;5031704;28;20171;-67
2021/01/09 02:56:42;;;;;;;20.97;14.17;;;2.30;99.90;;;;;;5031353;28;20696;-67
2021/01/09 02:59:07;;;;;;;21.90;14.07;;;2.40;99.90;;;;;;5031485;28;20183;-65
2021/01/09 03:01:33;;;;;;;21.83;14.53;;;2.40;99.90;;;;;;5032027;28;20180;-67
2021/01/09 03:03:59;;;;;;;20.83;13.50;;;2.40;99.90;;;;;;5031066;28;20634;-66
2021/01/09 03:06:25;;;;;;;21.17;13.70;;;2.50;99.90;;;;;;5031232;28;20180;-65
2021/01/09 03:08:52;;;;;;;21.47;13.37;;;2.40;99.90;;;;;;5031163;28;20928;-68
2021/01/09 03:11:18;;;;;;;20.07;12.70;;;2.40;99.90;;;;;;5031052;28;20423;-65
2021/01/09 03:13:45;;;;;;;16.50;11.60;;;2.40;99.90;;;;;;5031620;28;20429;-68
2021/01/09 03:16:10;;;;;;;17.87;11.67;;;2.40;99.90;;;;;;5051257;28;20426;-67
2021/01/09 03:18:36;;;;;;;17.43;11.10;;;2.30;99.90;;;;;;5051473;28;20453;-65
2021/01/09 03:21:02;;;;;;;16.60;11.37;;;2.40;99.90;;;;;;5051024;28;20213;-67
2021/01/09 03:23:28;;;;;;;16.80;11.57;;;2.30;99.90;;;;;;5050931;28;20494;-64
2021/01/09 03:25:54;;;;;;;15.87;10.33;;;2.30;99.90;;;;;;5051272;28;20405;-64
2021/01/09 03:28:19;;;;;;;17.07;10.87;;;2.30;99.90;;;;;;5033009;28;20175;-67
2021/01/09 03:30:45;;;;;;;13.97;10.20;;;2.20;99.90;;;;;;5051196;28;20190;-66
2021/01/09 03:33:11;;;;;;;14.47;9.90;;;2.20;99.90;;;;;;5051051;28;20175;-65
2021/01/09 03:35:36;;;;;;;14.20;10.43;;;2.10;99.90;;;;;;5051001;28;20713;-64
2021/01/09 03:38:02;;;;;;;16.57;10.60;;;2.00;99.90;;;;;;5050844;28;20281;-67
2021/01/09 03:40:27;;;;;;;14.83;10.27;;;1.90;99.90;;;;;;5050857;28;20182;-66
2021/01/09 03:42:53;;;;;;;14.97;10.10;;;1.80;99.90;;;;;;5051255;28;20182;-65
2021/01/09 03:45:19;;;;;;;13.63;10.37;;;1.80;99.90;;;;;;5050987;28;20312;-67
2021/01/09 03:47:45;;;;;;;15.10;10.43;;;1.80;99.90;;;;;;5032973;28;20641;-64
2021/01/09 03:50:10;;;;;;;12.63;9.13;;;1.70;99.90;;;;;;5050785;28;20210;-65
2021/01/09 03:52:36;;;;;;;13.83;9.43;;;1.70;99.90;;;;;;5032798;28;20198;-67
2021/01/09 03:55:01;;;;;;;14.67;10.20;;;1.80;99.90;;;;;;5050808;28;20544;-67
2021/01/09 03:57:27;;;;;;;16.53;9.60;;;1.70;99.90;;;;;;5032824;28;20199;-63
2021/01/09 03:59:53;;;;;;;13.53;9.73;;;1.60;99.90;;;;;;5050724;28;20175;-64
2021/01/09 04:02:18;;;;;;;14.63;9.50;;;1.60;99.90;;;;;;5050737;28;20171;-67
2021/01/09 04:04:44;;;;;;;15.27;9.83;;;1.60;99.90;;;;;;5050478;28;20202;-65
2021/01/09 04:07:09;;;;;;;14.10;9.70;;;1.60;99.90;;;;;;5050797;28;20213;-65
2021/01/09 04:09:35;;;;;;;14.43;9.03;;;1.50;99.90;;;;;;5050858;28;20213;-66
2021/01/09 04:12:00;;;;;;;12.37;8.23;;;1.50;99.90;;;;;;5050468;28;20175;-65
2021/01/09 04:14:26;;;;;;;14.03;9.30;;;1.50;99.90;;;;;;5050678;28;20175;-64
2021/01/09 04:16:52;;;;;;;14.53;9.77;;;1.50;99.90;;;;;;5050168;28;20182;-67
2021/01/09 04:19:17;;;;;;;15.10;9.50;;;1.50;99.90;;;;;;5050694;28;20179;-65
2021/01/09 04:21:47;;;;;;;16.33;10.33;;;1.40;99.90;;;;;;5049206;28;20218;-65
2021/01/09 04:24:13;;;;;;;15.00;9.20;;;1.40;99.90;;;;;;5050505;28;20266;-66
2021/01/09 04:26:39;;;;;;;16.40;10.13;;;1.40;99.90;;;;;;5050559;28;20494;-64
2021/01/09 04:29:05;;;;;;;14.47;9.83;;;1.40;99.90;;;;;;5050383;28;20679;-65
2021/01/09 04:31:31;;;;;;;16.80;10.77;;;1.40;99.90;;;;;;5050484;28;20417;-64
2021/01/09 04:33:56;;;;;;;14.77;9.50;;;1.30;99.90;;;;;;5054249;28;20244;-66
2021/01/09 04:36:22;;;;;;;14.17;9.27;;;1.30;99.90;;;;;;5054324;28;20193;-65
2021/01/09 04:38:48;;;;;;;15.43;10.10;;;1.20;99.90;;;;;;5054231;28;20213;-64
2021/01/09 04:41:18;;;;;;;16.93;10.57;;;1.20;99.90;;;;;;5036332;28;20179;-64
2021/01/09 04:43:44;;;;;;;14.30;10.00;;;1.10;99.90;;;;;;5054422;28;20179;-64
2021/01/09 04:46:13;;;;;;;14.40;9.70;;;1.10;99.90;;;;;;5054372;28;20852;-67
2021/01/09 04:48:39;;;;;;;15.30;10.03;;;1.00;99.90;;;;;;5054206;28;20175;-67
2021/01/09 04:51:04;;;;;;;14.50;10.57;;;1.00;99.90;;;;;;5054043;28;20853;-67
2021/01/09 04:53:31;;;;;;;14.17;10.07;;;1.00;99.90;;;;;;5053819;28;20221;-67
2021/01/09 04:55:57;;;;;;;15.57;10.00;;;0.90;99.90;;;;;;5054306;28;20210;-67
2021/01/09 04:58:23;;;;;;;17.40;11.37;;;0.80;99.90;;;;;;5053596;28;20453;-66
2021/01/09 05:00:54;;;;;;;17.33;11.30;;;0.60;99.90;;;;;;5053889;28;20422;-66
2021/01/09 05:03:21;;;;;;;18.30;11.47;;;0.50;99.90;;;;;;5053990;28;20592;-66
2021/01/09 05:05:47;;;;;;;17.07;11.03;;;0.60;99.90;;;;;;5053491;28;21914;-65
2021/01/09 05:08:13;;;;;;;20.43;12.13;;;0.50;99.90;;;;;;5054011;28;20852;-66
2021/01/09 05:10:39;;;;;;;17.43;11.73;;;0.50;99.90;;;;;;5053643;28;20441;-65
2021/01/09 05:13:05;;;;;;;18.23;12.20;;;0.40;99.90;;;;;;5053618;28;20175;-64
2021/01/09 05:15:35;;;;;;;21.47;12.10;;;0.30;99.90;;;;;;5053973;28;20223;-66
2021/01/09 05:18:02;;;;;;;18.53;12.03;;;0.40;99.90;;;;;;5052349;28;20468;-64
2021/01/09 05:20:27;;;;;;;20.77;11.90;;;0.40;99.90;;;;;;5052523;28;20850;-66
2021/01/09 05:22:53;;;;;;;19.50;12.30;;;0.50;99.90;;;;;;5034267;28;20409;-65
2021/01/09 05:25:24;;;;;;;19.93;13.00;;;0.60;99.90;;;;;;5053641;28;20254;-67
2021/01/09 05:27:51;;;;;;;21.13;12.20;;;0.60;99.90;;;;;;5052543;28;20504;-65
2021/01/09 05:30:18;;;;;;;18.27;11.13;;;0.60;99.90;;;;;;5053631;28;20769;-64
2021/01/09 05:32:44;;;;;;;19.87;12.57;;;0.50;99.90;;;;;;5053558;28;20818;-64
2021/01/09 05:35:12;;;;;;;18.43;11.93;;;0.50;99.90;;;;;;5053126;28;20497;-66
2021/01/09 05:37:38;;;;;;;18.03;11.27;;;0.50;99.90;;;;;;5053235;28;20225;-66
2021/01/09 05:40:05;;;;;;;20.17;11.53;;;0.50;99.90;;;;;;5053067;28;20544;-64
2021/01/09 05:42:30;;;;;;;17.43;11.30;;;0.40;99.90;;;;;;5035280;28;20530;-65
2021/01/09 05:44:57;;;;;;;18.47;11.30;;;0.40;99.90;;;;;;5052839;28;20416;-67
2021/01/09 05:47:25;;;;;;;17.10;11.77;;;0.40;99.90;;;;;;5035091;28;20171;-67
2021/01/09 05:49:53;;;;;;;18.00;11.67;;;0.40;99.90;;;;;;5053115;28;20446;-67
2021/01/09 05:52:20;;;;;;;17.77;11.47;;;0.30;99.90;;;;;;5052861;28;20424;-66
2021/01/09 05:54:46;;;;;;;17.93;11.67;;;0.20;99.90;;;;;;5035241;28;20450;-66
2021/01/09 05:57:16;;;;;;;18.27;11.03;;;0.20;99.90;;;;;;5034972;28;20461;-68
2021/01/09 05:59:43;;;;;;;16.63;10.30;;;0.10;99.90;;;;;;5052975;28;20191;-66
2021/01/09 06:02:09;;;;;;;18.80;11.70;;;0.10;99.90;;;;;;5034851;28;20422;-66
2021/01/09 06:04:41;;;;;;;17.37;10.10;;;0.10;99.90;;;;;;5052802;28;20512;-63
2021/01/09 06:07:19;;;;;;;17.03;11.27;;;0.10;99.90;;;;;;5052677;28;20437;-65
2021/01/09 06:10:08;;;;;;;15.70;10.57;;;0.00;99.90;;;;;;5052539;28;20421;-65
2021/01/09 06:12:55;;;;;;;17.43;11.33;;;0.00;99.90;;;;;;5052208;28;20417;-66
2021/01/09 06:15:23;;;;;;;17.80;10.13;;;0.00;99.90;;;;;;5051770;28;20810;-64
2021/01/09 06:17:51;;;;;;;16.70;10.73;;;0.20;99.90;;;;;;5052287;28;20488;-65
2021/01/09 06:20:17;;;;;;;14.73;10.00;;;0.30;99.90;;;;;;5034713;28;20488;-64
2021/01/09 06:22:43;;;;;;;16.63;10.10;;;0.50;99.90;;;;;;5052165;28;20512;-67
2021/01/09 06:25:11;;;;;;;16.90;10.73;;;0.50;99.90;;;;;;5052377;28;20461;-63
2021/01/09 06:27:39;;;;;;;16.03;10.53;;;0.60;99.90;;;;;;5052299;28;20518;-64
2021/01/09 06:30:10;;;;;;;17.97;10.23;;;0.50;99.90;;;;;;5052490;28;20414;-65
2021/01/09 06:32:41;;;;;;;17.10;11.20;;;0.50;99.90;;;;;;5052274;28;20430;-66
2021/01/09 06:35:08;;;;;;;17.33;11.03;;;0.60;99.90;;;;;;5051155;28;20421;-63
2021/01/09 06:37:34;;;;;;;15.03;10.17;;;0.70;99.90;;;;;;5052037;28;20919;-66
2021/01/09 06:40:01;;;;;;;17.03;10.20;;;0.90;99.90;;;;;;5052278;28;20468;-65
2021/01/09 06:42:27;;;;;;;15.23;9.50;;;0.90;99.90;;;;;;5052034;28;20917;-66
2021/01/09 06:44:54;;;;;;;15.33;9.57;;;1.00;99.90;;;;;;5052218;28;20762;-64
2021/01/09 06:47:27;;;;;;;15.83;9.27;;;1.00;99.90;;;;;;5052275;28;20413;-67
2021/01/09 06:49:54;;;;;;;14.70;9.97;;;1.00;99.90;;;;;;5051665;28;20409;-66
2021/01/09 06:52:20;;;;;;;17.13;9.93;;;0.90;99.90;;;;;;5052118;28;20417;-68
2021/01/09 06:54:46;;;;;;;15.00;9.53;;;0.90;99.90;;;;;;5051055;28;20930;-67
2021/01/09 06:57:20;;;;;;;13.30;9.33;;;1.00;99.90;;;;;;5051710;28;20740;-64
2021/01/09 06:59:45;;;;;;;13.43;8.80;;;1.00;99.90;;;;;;5051931;28;20467;-65
2021/01/09 07:02:18;;;;;;;14.17;8.73;;;1.00;99.90;;;;;;5050011;28;20425;-68
2021/01/09 07:05:06;;;;;;;13.97;9.23;;;1.00;99.90;;;;;;5051604;28;20178;-65
2021/01/09 07:07:45;;;;;;;14.17;8.73;;;1.10;99.90;;;;;;5050798;28;20414;-64
2021/01/09 07:10:11;;;;;;;14.27;9.47;;;1.10;99.90;;;;;;5051343;28;20484;-66
2021/01/09 07:12:38;;;;;;;12.97;9.00;;;1.10;99.90;;;;;;5051219;28;20489;-63
2021/01/09 07:15:07;;;;;;;14.73;9.83;;;1.20;99.90;;;;;;5051499;28;20163;-66
2021/01/09 07:17:39;;;;;;;15.27;9.63;;;1.20;99.90;;;;;;5051391;28;20496;-65
2021/01/09 07:20:12;;;;;;;16.17;9.90;;;1.20;99.90;;;;;;5047992;28;20513;-67
2021/01/09 07:22:40;;;;;;;13.70;8.87;;;1.20;99.90;;;;;;5031178;28;20445;-65
2021/01/09 07:25:10;;;;;;;13.43;9.27;;;1.10;99.90;;;;;;5031004;28;20575;-65
2021/01/09 07:27:45;;;;;;;13.60;8.43;;;1.00;99.90;;;;;;5031023;28;20952;-64
2021/01/09 07:30:16;;;;;;;14.57;10.20;;;1.10;99.90;;;;;;5030967;28;20422;-66
2021/01/09 07:32:50;;;;;;;14.80;9.90;;;1.10;99.90;;;;;;5030938;28;20426;-65
2021/01/09 07:35:22;;;;;;;15.43;9.97;;;1.10;99.90;;;;;;5031009;28;20414;-64
2021/01/09 07:37:51;;;;;;;13.83;9.73;;;1.10;99.90;;;;;;5030740;28;20512;-66
2021/01/09 07:40:19;;;;;;;17.57;11.10;;;1.20;99.90;;;;;;5030991;28;20513;-67
2021/01/09 07:42:46;;;;;;;15.87;11.13;;;1.20;99.90;;;;;;5030935;28;20450;-64
2021/01/09 07:45:18;;;;;;;14.50;10.67;;;1.10;99.90;;;;;;5029747;28;20446;-64
2021/01/09 07:47:45;;;;;;;17.70;11.23;;;1.00;99.90;;;;;;5031513;28;20917;-68
2021/01/09 07:50:13;;;;;;;14.90;10.63;;;1.10;99.90;;;;;;5033480;28;20415;-66
2021/01/09 07:52:39;;;;;;;18.00;10.63;;;1.00;99.90;;;;;;5051390;28;20418;-65
2021/01/09 07:55:07;;;;;;;15.80;10.77;;;1.00;99.90;;;;;;5051159;28;20486;-67
2021/01/09 07:57:33;;;;;;;19.03;10.83;;;1.00;99.90;;;;;;5051605;28;20456;-68
2021/01/09 08:00:03;;;;;;;16.53;10.60;;;1.00;99.90;;;;;;5051397;28;20776;-67
2021/01/09 08:02:29;;;;;;;16.17;10.07;;;1.00;99.90;;;;;;5051345;28;20574;-66
2021/01/09 08:05:14;;;;;;;15.07;9.67;;;1.00;99.90;;;;;;5051346;28;20437;-65
2021/01/09 08:07:51;;;;;;;15.27;9.63;;;1.00;99.90;;;;;;5053730;28;20934;-67
2021/01/09 08:10:24;;;;;;;15.03;9.90;;;1.00;99.90;;;;;;5055204;28;20437;-65
2021/01/09 08:12:55;;;;;;;17.07;10.83;;;1.20;99.90;;;;;;5055492;28;20428;-66
2021/01/09 08:15:21;;;;;;;17.07;10.20;;;1.20;99.90;;;;;;5055157;28;21037;-66
2021/01/09 08:17:47;;;;;;;15.60;10.37;;;1.20;99.90;;;;;;5037226;28;20547;-67
2021/01/09 08:20:14;;;;;;;18.50;11.70;;;1.20;99.90;;;;;;5051467;28;20187;-68
2021/01/09 08:22:52;;;;;;;19.27;11.57;;;1.30;99.90;;;;;;5033844;28;20180;-66
2021/01/09 08:25:19;;;;;;;16.70;10.80;;;1.40;99.90;;;;;;5034945;28;20931;-65
2021/01/09 08:27:56;;;;;;;21.43;11.73;;;1.50;99.90;;;;;;5035019;28;20434;-67
2021/01/09 08:30:24;;;;;;;18.97;10.87;;;1.60;99.90;;;;;;5035203;28;20426;-66
2021/01/09 08:32:59;;;;;;;17.53;11.07;;;1.60;99.90;;;;;;5035074;28;20513;-65
2021/01/09 08:35:25;;;;;;;22.17;11.07;;;1.60;99.90;;;;;;5034632;28;20903;-66
2021/01/09 08:37:52;;;;;;;17.93;11.63;;;1.70;99.90;;;;;;5034848;28;20446;-67
2021/01/09 08:40:19;;;;;;;17.43;11.43;;;1.80;99.90;;;;;;5034553;28;20437;-64
2021/01/09 08:42:52;;;;;;;15.60;10.90;;;2.10;99.90;;;;;;5034523;28;20873;-65
2021/01/09 08:45:18;;;;;;;16.77;11.17;;;2.20;99.90;;;;;;5034579;28;20853;-66
2021/01/09 08:47:45;;;;;;;17.07;11.07;;;2.30;99.90;;;;;;5034456;28;20425;-66
2021/01/09 08:50:14;;;;;;;14.97;9.83;;;2.40;99.90;;;;;;5034640;28;20179;-64
2021/01/09 08:52:44;;;;;;;15.80;10.70;;;2.40;99.90;;;;;;5032965;28;20473;-67
2021/01/09 08:55:11;;;;;;;16.77;11.00;;;2.50;99.90;;;;;;5054630;28;20487;-69
2021/01/09 08:57:37;;;;;;;17.30;10.67;;;2.50;99.90;;;;;;5036684;28;20476;-69
2021/01/09 09:00:04;;;;;;;16.33;10.77;;;2.60;99.90;;;;;;5054459;28;21373;-65
2021/01/09 09:02:32;;;;;;;16.53;10.63;;;2.60;99.90;;;;;;5054309;28;20195;-64
2021/01/09 09:05:01;;;;;;;14.40;10.60;;;2.70;99.90;;;;;;5054110;28;20503;-65
2021/01/09 09:07:32;;;;;;;15.80;11.03;;;2.80;99.90;;;;;;5054328;28;20788;-69
2021/01/09 09:10:02;;;;;;;17.30;10.00;;;2.90;99.90;;;;;;5036483;28;20421;-66
2021/01/09 09:12:28;;;;;;;17.77;10.60;;;3.00;99.90;;;;;;5054440;28;20458;-68
2021/01/09 09:15:01;;;;;;;15.93;10.57;;;3.10;99.90;;;;;;5054438;28;20453;-65
2021/01/09 09:17:27;;;;;;;19.77;11.60;;;3.20;99.90;;;;;;5053592;28;20221;-66
2021/01/09 09:19:52;;;;;;;15.27;10.27;;;3.30;99.90;;;;;;5053653;28;20912;-64
2021/01/09 09:22:29;;;;;;;14.90;10.50;;;3.30;99.90;;;;;;5051563;28;20248;-67
2021/01/09 09:24:55;;;;;;;15.17;10.53;;;3.40;99.90;;;;;;5053948;28;20210;-68
2021/01/09 09:27:28;;;;;;;15.40;10.93;;;3.40;99.90;;;;;;5053708;28;20926;-67
2021/01/09 09:30:11;;;;;;;14.33;10.60;;;3.50;99.90;;;;;;5053908;28;20449;-64
2021/01/09 09:32:38;;;;;;;15.23;9.77;;;3.50;99.90;;;;;;5052825;28;20418;-65
2021/01/09 09:35:27;;;;;;;15.17;10.43;;;3.60;99.90;;;;;;5053581;28;20488;-64
2021/01/09 09:37:54;;;;;;;16.97;11.10;;;3.60;99.90;;;;;;5053079;28;20678;-66
2021/01/09 09:40:27;;;;;;;15.03;11.03;;;3.60;99.90;;;;;;5053380;28;20440;-64
2021/01/09 09:42:54;;;;;;;16.27;11.07;;;3.70;99.90;;;;;;5052211;28;20850;-66
2021/01/09 09:45:20;;;;;;;15.37;10.50;;;3.80;99.90;;;;;;5053306;28;20413;-66
2021/01/09 09:47:50;;;;;;;16.57;10.87;;;3.80;99.90;;;;;;5053304;28;20453;-66
2021/01/09 09:50:25;;;;;;;18.17;12.20;;;3.70;99.90;;;;;;5053299;28;20421;-67
2021/01/09 09:53:02;;;;;;;18.93;12.57;;;3.70;99.90;;;;;;5053349;28;20760;-66
2021/01/09 09:55:28;;;;;;;16.63;10.90;;;3.70;99.90;;;;;;5052734;28;20954;-64
2021/01/09 09:58:09;;;;;;;16.70;11.23;;;3.80;99.90;;;;;;5053146;28;20939;-68
2021/01/09 10:00:45;;;;;;;18.83;12.07;;;3.80;99.90;;;;;;5053061;28;20409;-65
2021/01/09 10:03:11;;;;;;;15.17;10.90;;;3.80;99.90;;;;;;5053101;28;20417;-66
2021/01/09 10:05:37;;;;;;;17.40;11.70;;;3.90;99.90;;;;;;5052759;28;20414;-66
2021/01/09 10:08:16;;;;;;;16.70;11.00;;;3.80;99.90;;;;;;5035067;28;20777;-66
2021/01/09 10:10:43;;;;;;;18.63;11.03;;;3.80;99.90;;;;;;5052835;28;20563;-66
2021/01/09 10:13:08;;;;;;;17.77;11.30;;;3.80;99.90;;;;;;5052891;28;20430;-64
2021/01/09 10:15:34;;;;;;;15.07;10.00;;;3.80;99.90;;;;;;5052956;28;20733;-64
2021/01/09 10:18:01;;;;;;;15.00;10.50;;;3.80;99.90;;;;;;5052352;28;20202;-67
2021/01/09 10:20:27;;;;;;;17.07;10.73;;;3.80;99.90;;;;;;5047885;28;20277;-66
2021/01/09 10:22:54;;;;;;;16.37;11.20;;;3.80;99.90;;;;;;5032649;28;20419;-67
2021/01/09 10:25:20;;;;;;;15.73;11.00;;;3.80;99.90;;;;;;5033001;28;20457;-67
2021/01/09 10:27:45;;;;;;;17.70;11.83;;;3.80;99.90;;;;;;5032719;28;20446;-66
2021/01/09 10:30:11;;;;;;;18.70;10.30;;;3.80;99.90;;;;;;5031629;28;20179;-67
2021/01/09 10:32:37;;;;;;;15.67;10.53;;;3.90;99.90;;;;;;5032560;28;20238;-63
2021/01/09 10:35:04;;;;;;;16.43;10.90;;;3.90;99.90;;;;;;5032570;28;20426;-65
2021/01/09 10:37:29;;;;;;;16.60;10.47;;;3.90;99.90;;;;;;5032801;28;20290;-66
2021/01/09 10:39:55;;;;;;;17.03;11.07;;;3.90;99.90;;;;;;5032674;28;20501;-64
2021/01/09 10:42:20;;;;;;;20.13;12.07;;;3.90;99.90;;;;;;5032366;28;20190;-65
2021/01/09 10:44:46;;;;;;;17.43;11.63;;;3.90;99.90;;;;;;5032576;28;20258;-64
2021/01/09 10:47:11;;;;;;;15.57;10.37;;;4.00;99.90;;;;;;5032209;28;20176;-67
2021/01/09 10:49:37;;;;;;;17.60;11.50;;;4.00;99.90;;;;;;5032509;28;20275;-67
2021/01/09 10:52:03;;;;;;;17.87;11.73;;;3.90;99.90;;;;;;5032230;28;20176;-65
2021/01/09 10:54:28;;;;;;;16.47;10.17;;;4.00;99.90;;;;;;5051859;28;20257;-67
2021/01/09 10:56:54;;;;;;;17.47;11.53;;;4.00;99.90;;;;;;5052237;28;20232;-63
2021/01/09 10:59:20;;;;;;;16.47;10.97;;;4.10;99.90;;;;;;5052057;28;20199;-65
2021/01/09 11:01:45;;;;;;;17.50;12.20;;;4.10;99.90;;;;;;5052212;28;20171;-65
2021/01/09 11:04:11;;;;;;;17.37;11.43;;;4.10;99.90;;;;;;5052047;28;20175;-65
2021/01/09 11:06:36;;;;;;;22.30;11.83;;;4.20;99.90;;;;;;5052047;28;20527;-65
2021/01/09 11:09:02;;;;;;;15.83;10.57;;;4.20;99.70;;;;;;5052366;28;20183;-67
2021/01/09 11:11:28;;;;;;;15.97;10.77;;;4.40;99.70;;;;;;5052157;28;20171;-66
2021/01/09 11:13:53;;;;;;;17.83;11.97;;;4.50;99.90;;;;;;5051875;28;20185;-68
2021/01/09 11:16:20;;;;;;;17.20;12.03;;;4.60;99.60;;;;;;5051564;28;20175;-65
2021/01/09 11:18:47;;;;;;;19.80;12.63;;;4.60;98.90;;;;;;5051283;28;20622;-66
2021/01/09 11:21:13;;;;;;;20.03;11.73;;;4.50;98.70;;;;;;5042507;28;20497;-66
2021/01/09 11:23:42;;;;;;;16.87;11.60;;;4.50;99.10;;;;;;5031512;28;20419;-66
2021/01/09 11:26:08;;;;;;;15.77;11.23;;;4.40;99.40;;;;;;5031459;28;20430;-66
2021/01/09 11:28:33;;;;;;;15.17;10.80;;;4.40;99.90;;;;;;5032136;28;20422;-66
2021/01/09 11:30:59;;;;;;;16.70;11.13;;;4.40;99.50;;;;;;5031554;28;20588;-64
2021/01/09 11:33:24;;;;;;;14.90;10.07;;;4.30;98.80;;;;;;5031637;28;20187;-64
2021/01/09 11:35:50;;;;;;;17.77;12.13;;;4.30;99.60;;;;;;5031466;28;20183;-67
2021/01/09 11:38:16;;;;;;;16.53;10.73;;;4.20;99.90;;;;;;5030050;28;20281;-65
2021/01/09 11:40:41;;;;;;;17.53;11.70;;;4.10;99.40;;;;;;5051318;28;20171;-66
2021/01/09 11:43:07;;;;;;;19.67;12.40;;;4.10;99.90;;;;;;5051392;28;20171;-67
2021/01/09 11:45:32;;;;;;;18.03;12.17;;;4.00;99.90;;;;;;5051499;28;20614;-68
2021/01/09 11:47:58;;;;;;;18.20;11.70;;;4.10;99.90;;;;;;5051559;28;20297;-66
2021/01/09 11:50:24;;;;;;;17.90;11.70;;;4.10;99.90;;;;;;5051177;28;20533;-65
2021/01/09 11:52:49;;;;;;;15.73;11.20;;;4.20;99.90;;;;;;5051484;28;20535;-66
2021/01/09 11:55:15;;;;;;;18.33;12.17;;;4.60;99.90;;;;;;5051162;28;20175;-66
2021/01/09 11:57:41;;;;;;;17.70;11.20;;;4.80;99.60;;;;;;5051073;28;20653;-67
2021/01/09 12:00:10;;;;;;;16.57;11.63;;;4.80;99.00;;;;;;5051405;28;20209;-65
2021/01/09 12:02:39;;;;;;;15.40;10.97;;;4.90;98.70;;;;;;5050885;28;20261;-63
2021/01/09 12:05:08;;;;;;;13.73;10.63;;;4.90;98.80;;;;;;5051213;28;20417;-64
2021/01/09 12:07:35;;;;;;;15.63;10.93;;;4.90;98.90;;;;;;5051260;28;20414;-66
2021/01/09 12:10:03;;;;;;;17.40;11.37;;;4.80;98.60;;;;;;5051228;28;20830;-65
2021/01/09 12:12:28;;;;;;;19.67;12.23;;;4.80;98.60;;;;;;5051116;28;20452;-65
2021/01/09 12:14:54;;;;;;;18.63;11.53;;;4.70;99.00;;;;;;5051151;28;20804;-66
2021/01/09 12:17:20;;;;;;;19.83;12.00;;;4.80;99.30;;;;;;5050891;28;20254;-65
2021/01/09 12:19:45;;;;;;;20.67;12.40;;;4.70;99.60;;;;;;5050350;28;20205;-66
2021/01/09 12:22:11;;;;;;;18.27;12.03;;;4.70;99.80;;;;;;5050749;28;20563;-64
2021/01/09 12:24:36;;;;;;;18.30;11.93;;;4.80;99.40;;;;;;5050573;28;20536;-65
2021/01/09 12:27:02;;;;;;;19.27;12.50;;;4.80;99.00;;;;;;5050526;28;20168;-64
2021/01/09 12:29:28;;;;;;;16.97;11.70;;;4.70;98.80;;;;;;5050433;28;20190;-65
2021/01/09 12:31:53;;;;;;;17.60;11.50;;;4.70;99.00;;;;;;5050382;28;20604;-64
2021/01/09 12:34:19;;;;;;;20.67;12.57;;;4.60;98.70;;;;;;5050517;28;20254;-64
2021/01/09 12:36:49;;;;;;;20.60;11.87;;;4.50;99.10;;;;;;5050282;28;20532;-66
2021/01/09 12:39:15;;;;;;;17.77;11.13;;;4.30;99.10;;;;;;5050377;28;20272;-67